Time;durP1;ratioP1;P1;durP2;ratioP2;P2;SDS_P1;SDS_P2;PMS_P1;PMS_P2;Temp;Humidity;BMP_temperature;BMP_pressure;BME280_temperature;BME280_humidity;BME280_pressure;Samples;Min_cycle;Max_cycle;Signal;HPM_P1;HPM_P2
2021/08/05 00:01:10;;;;;;;;;;;;;;;19.41;68.68;99729.97;10363483;28;19968;-54
2021/08/05 00:06:12;;;;;;;;;;;;;;;19.43;68.95;99727.94;10360734;28;19926;-54
2021/08/05 00:11:13;;;;;;;;;;;;;;;19.41;69.11;99722.72;10356869;28;19965;-54
2021/08/05 00:16:14;;;;;;;;;;;;;;;19.40;69.17;99723.75;10359032;28;19937;-54
2021/08/05 00:21:19;;;;;;;;;;;;;;;19.46;69.00;99714.03;10365169;28;19925;-54
2021/08/05 00:26:21;;;;;;;;;;;;;;;19.39;69.57;99710.44;10357701;28;19992;-54
2021/08/05 00:31:22;;;;;;;;;;;;;;;19.42;69.57;99710.06;10366616;28;19964;-55
2021/08/05 00:36:23;;;;;;;;;;;;;;;19.41;69.89;99702.97;10364517;28;19925;-54
2021/08/05 00:41:25;;;;;;;;;;;;;;;19.44;69.77;99697.19;10364671;28;19928;-54
2021/08/05 00:46:26;;;;;;;;;;;;;;;19.44;69.88;99697.19;10359415;28;20385;-54
2021/08/05 00:51:28;;;;;;;;;;;;;;;19.38;69.84;99698.81;10368098;28;20500;-54
2021/08/05 00:56:30;;;;;;;;;;;;;;;19.30;70.78;99696.25;10358641;28;19932;-54
2021/08/05 01:01:36;;;;;;;;;;;;;;;19.26;71.26;99689.59;10360603;28;19929;-54
2021/08/05 01:06:56;;;;;;;;;;;;;;;19.22;71.56;99683.72;10344316;28;19925;-54
2021/08/05 01:12:09;;;;;;;;;;;;;;;19.21;71.54;99678.53;10367249;28;20193;-54
2021/08/05 01:17:12;;;;;;;;;;;;;;;19.22;71.77;99677.50;10367236;28;19978;-54
2021/08/05 01:22:14;;;;;;;;;;;;;;;19.22;72.18;99685.59;10366280;28;19932;-54
2021/08/05 01:27:16;;;;;;;;;;;;;;;19.21;72.12;99678.53;10371487;28;20364;-54
2021/08/05 01:32:18;;;;;;;;;;;;;;;19.17;72.17;99675.41;10371134;28;19929;-54
2021/08/05 01:37:20;;;;;;;;;;;;;;;19.18;72.33;99670.84;10361937;28;19931;-55
2021/08/05 01:42:22;;;;;;;;;;;;;;;19.20;72.06;99674.16;10350735;28;19992;-54
2021/08/05 01:47:24;;;;;;;;;;;;;;;19.11;72.33;99665.38;10362088;28;19976;-54
2021/08/05 01:52:25;;;;;;;;;;;;;;;19.04;72.74;99659.91;10373802;28;20060;-54
2021/08/05 01:57:27;;;;;;;;;;;;;;;18.95;73.49;99655.69;10367768;28;19932;-54
2021/08/05 02:02:28;;;;;;;;;;;;;;;18.90;73.69;99658.13;10365977;28;19932;-54
2021/08/05 02:07:33;;;;;;;;;;;;;;;18.84;74.01;99656.16;10365058;28;19925;-54
2021/08/05 02:12:43;;;;;;;;;;;;;;;18.78;74.47;99654.22;10366589;28;19929;-54
2021/08/05 02:17:44;;;;;;;;;;;;;;;18.70;75.04;99650.63;10364522;28;19991;-54
2021/08/05 02:22:47;;;;;;;;;;;;;;;18.63;74.71;99652.44;10369794;28;19956;-54
2021/08/05 02:27:49;;;;;;;;;;;;;;;18.60;74.75;99652.81;10375848;28;19987;-54
2021/08/05 02:32:50;;;;;;;;;;;;;;;18.55;74.81;99641.75;10372599;28;19961;-55
2021/08/05 02:37:51;;;;;;;;;;;;;;;18.54;74.98;99642.81;10364129;28;20563;-55
2021/08/05 02:42:54;;;;;;;;;;;;;;;18.49;75.41;99642.53;10367445;28;19949;-53
2021/08/05 02:47:55;;;;;;;;;;;;;;;18.52;75.25;99634.06;10371893;28;19925;-54
2021/08/05 02:52:57;;;;;;;;;;;;;;;18.50;75.66;99645.03;10372007;28;20332;-54
2021/08/05 02:57:59;;;;;;;;;;;;;;;18.43;75.77;99635.19;10363480;28;19933;-54
2021/08/05 03:03:01;;;;;;;;;;;;;;;18.32;75.46;99634.66;10365732;28;19929;-54
2021/08/05 03:08:02;;;;;;;;;;;;;;;18.25;75.34;99628.34;10371007;28;19967;-54
2021/08/05 03:13:04;;;;;;;;;;;;;;;18.21;75.55;99621.69;10366638;28;20044;-56
2021/08/05 03:18:05;;;;;;;;;;;;;;;18.08;76.25;99626.91;10373791;28;19925;-54
2021/08/05 03:23:07;;;;;;;;;;;;;;;17.98;75.83;99628.00;10372873;28;20005;-54
2021/08/05 03:28:08;;;;;;;;;;;;;;;17.98;75.54;99622.63;10377166;28;19976;-54
2021/08/05 03:33:09;;;;;;;;;;;;;;;17.94;76.19;99624.03;10372091;28;20426;-57
2021/08/05 03:38:11;;;;;;;;;;;;;;;17.85;76.14;99622.44;10358581;28;19993;-54
2021/08/05 03:43:12;;;;;;;;;;;;;;;17.88;76.16;99621.22;10363468;28;19948;-54
2021/08/05 03:48:13;;;;;;;;;;;;;;;17.81;76.39;99621.13;10362750;28;19956;-54
2021/08/05 03:53:15;;;;;;;;;;;;;;;17.74;76.59;99625.59;10370189;28;19926;-54
2021/08/05 03:58:16;;;;;;;;;;;;;;;17.67;77.00;99628.19;10370309;28;19926;-54
2021/08/05 04:03:18;;;;;;;;;;;;;;;17.67;77.53;99620.94;10374398;28;19929;-54
2021/08/05 04:08:19;;;;;;;;;;;;;;;17.66;78.15;99616.59;10368021;28;20138;-54
2021/08/05 04:13:20;;;;;;;;;;;;;;;17.66;78.22;99619.28;10365820;28;20477;-54
2021/08/05 04:18:22;;;;;;;;;;;;;;;17.66;77.97;99621.97;10366433;28;19949;-55
2021/08/05 04:23:23;;;;;;;;;;;;;;;17.67;78.03;99620.13;10366969;28;19926;-54
2021/08/05 04:28:25;;;;;;;;;;;;;;;17.69;77.98;99628.84;10366260;28;19956;-54
2021/08/05 04:33:26;;;;;;;;;;;;;;;17.53;77.75;99608.31;10364307;28;20263;-54
2021/08/05 04:38:28;;;;;;;;;;;;;;;17.64;77.54;99632.09;10361360;28;19974;-54
2021/08/05 04:43:29;;;;;;;;;;;;;;;17.62;77.47;99634.09;10372734;28;20047;-54
2021/08/05 04:48:31;;;;;;;;;;;;;;;17.52;78.16;99628.19;10370895;28;19972;-55
2021/08/05 04:53:32;;;;;;;;;;;;;;;17.46;78.45;99637.81;10363988;28;19925;-54
2021/08/05 04:58:34;;;;;;;;;;;;;;;17.45;78.26;99636.16;10361904;28;19952;-54
2021/08/05 05:03:36;;;;;;;;;;;;;;;17.53;77.94;99634.41;10366351;28;19957;-54
2021/08/05 05:08:38;;;;;;;;;;;;;;;17.56;77.09;99637.53;10368076;28;19925;-55
2021/08/05 05:13:42;;;;;;;;;;;;;;;17.54;77.01;99642.28;10370505;28;19929;-54
2021/08/05 05:18:43;;;;;;;;;;;;;;;17.23;76.88;99608.28;10367102;28;19929;-54
2021/08/05 05:23:44;;;;;;;;;;;;;;;17.52;76.88;99633.56;10367854;28;19948;-54
2021/08/05 05:28:46;;;;;;;;;;;;;;;17.57;76.34;99636.53;10378450;28;19965;-53
2021/08/05 05:33:47;;;;;;;;;;;;;;;17.63;76.24;99630.41;10373154;28;20024;-54
2021/08/05 05:38:48;;;;;;;;;;;;;;;17.80;75.23;99625.66;10371139;28;19960;-55
2021/08/05 05:43:50;;;;;;;;;;;;;;;17.76;75.53;99626.22;10372168;28;21514;-54
2021/08/05 05:48:51;;;;;;;;;;;;;;;17.73;75.47;99623.91;10378431;28;20075;-55
2021/08/05 05:53:52;;;;;;;;;;;;;;;17.81;75.36;99621.13;10377496;28;19929;-54
2021/08/05 05:58:54;;;;;;;;;;;;;;;17.79;75.03;99623.16;10363994;28;20019;-54
2021/08/05 06:03:55;;;;;;;;;;;;;;;17.59;76.06;99623.72;10367966;28;19944;-54
2021/08/05 06:08:56;;;;;;;;;;;;;;;17.62;76.65;99622.53;10351717;28;21167;-56
2021/08/05 06:13:58;;;;;;;;;;;;;;;17.66;75.62;99618.44;10344745;28;19943;-59
2021/08/05 06:18:59;;;;;;;;;;;;;;;17.70;75.88;99619.75;10346595;28;20567;-55
2021/08/05 06:24:01;;;;;;;;;;;;;;;17.98;75.37;99611.84;10347321;28;20031;-55
2021/08/05 06:29:02;;;;;;;;;;;;;;;18.26;74.09;99613.88;10335216;28;20404;-55
2021/08/05 06:34:04;;;;;;;;;;;;;;;18.50;73.20;99622.63;10346317;28;20019;-55
2021/08/05 06:39:05;;;;;;;;;;;;;;;18.90;71.45;99615.00;10350230;28;19987;-55
2021/08/05 06:44:06;;;;;;;;;;;;;;;19.18;70.34;99622.28;10352802;28;19965;-54
2021/08/05 06:49:08;;;;;;;;;;;;;;;19.43;69.48;99626.19;10347996;28;20242;-55
2021/08/05 06:54:09;;;;;;;;;;;;;;;19.75;68.79;99623.91;10345956;28;19976;-55
2021/08/05 06:59:15;;;;;;;;;;;;;;;19.67;68.16;99617.84;10347612;28;19925;-54
2021/08/05 07:04:17;;;;;;;;;;;;;;;19.47;68.70;99626.66;10350255;28;19957;-55
2021/08/05 07:09:18;;;;;;;;;;;;;;;19.35;68.86;99623.66;10346821;28;19929;-55
2021/08/05 07:14:19;;;;;;;;;;;;;;;19.13;69.80;99620.16;10347080;28;20075;-55
2021/08/05 07:19:21;;;;;;;;;;;;;;;19.05;70.05;99626.53;10345143;28;19956;-59
2021/08/05 07:24:23;;;;;;;;;;;;;;;18.97;70.69;99625.81;10345539;28;19956;-53
2021/08/05 07:29:24;;;;;;;;;;;;;;;19.27;70.06;99628.38;10347520;28;19976;-54
2021/08/05 07:34:25;;;;;;;;;;;;;;;19.39;69.52;99619.53;10349886;28;19937;-54
2021/08/05 07:39:27;;;;;;;;;;;;;;;19.61;68.19;99608.69;10348017;28;20015;-54
2021/08/05 07:44:28;;;;;;;;;;;;;;;19.73;68.46;99606.25;10342434;28;20516;-54
2021/08/05 07:49:30;;;;;;;;;;;;;;;19.99;67.42;99597.47;10344239;28;19961;-55
2021/08/05 07:54:32;;;;;;;;;;;;;;;20.23;67.45;99592.59;10344700;28;20382;-58
2021/08/05 07:59:33;;;;;;;;;;;;;;;20.59;64.83;99592.25;10344118;28;19965;-55
2021/08/05 08:04:34;;;;;;;;;;;;;;;20.62;64.56;99601.84;10339607;28;20513;-55
2021/08/05 08:09:36;;;;;;;;;;;;;;;20.88;64.02;99592.13;10341260;28;20030;-56
2021/08/05 08:14:37;;;;;;;;;;;;;;;20.79;63.14;99600.44;10330532;28;20418;-56
2021/08/05 08:19:39;;;;;;;;;;;;;;;20.92;62.90;99602.31;10354688;28;20446;-56
2021/08/05 08:24:40;;;;;;;;;;;;;;;21.32;61.01;99598.78;10355415;28;20056;-56
2021/08/05 08:29:41;;;;;;;;;;;;;;;21.50;60.61;99593.56;10355395;28;19965;-56
2021/08/05 08:34:43;;;;;;;;;;;;;;;21.58;60.34;99588.97;10355360;28;20020;-57
2021/08/05 08:39:44;;;;;;;;;;;;;;;21.83;59.16;99586.41;10350793;28;19929;-56
2021/08/05 08:44:45;;;;;;;;;;;;;;;21.75;59.31;99573.91;10334773;28;20038;-54
2021/08/05 08:49:48;;;;;;;;;;;;;;;22.36;58.75;99575.34;10335208;28;20016;-55
2021/08/05 08:54:50;;;;;;;;;;;;;;;22.73;57.49;99569.28;10354100;28;19941;-54
2021/08/05 08:59:52;;;;;;;;;;;;;;;23.00;56.67;99559.06;10352108;28;19972;-57
2021/08/05 09:04:54;;;;;;;;;;;;;;;23.15;54.36;99561.47;10353084;28;20015;-58
2021/08/05 09:09:55;;;;;;;;;;;;;;;22.93;56.20;99559.09;10336943;28;20018;-54
2021/08/05 09:14:57;;;;;;;;;;;;;;;23.17;54.84;99564.78;10355055;28;19964;-54
2021/08/05 09:20:03;;;;;;;;;;;;;;;23.32;53.79;99553.56;10342925;28;19929;-55
2021/08/05 09:25:20;;;;;;;;;;;;;;;23.93;52.58;99553.75;10351652;28;19984;-54
2021/08/05 09:30:29;;;;;;;;;;;;;;;24.62;49.60;99545.28;10334782;28;19973;-54
2021/08/05 09:35:30;;;;;;;;;;;;;;;25.04;48.82;99537.91;10350694;28;19934;-54
2021/08/05 09:40:32;;;;;;;;;;;;;;;25.40;48.40;99544.19;10342286;28;19925;-55
2021/08/05 09:45:34;;;;;;;;;;;;;;;25.62;46.72;99532.66;10354620;28;19977;-55
2021/08/05 09:50:35;;;;;;;;;;;;;;;25.56;47.72;99536.34;10346480;28;19925;-56
2021/08/05 09:55:37;;;;;;;;;;;;;;;25.56;46.36;99525.44;10350761;28;20491;-54
2021/08/05 10:00:40;;;;;;;;;;;;;;;25.20;45.77;99524.63;10348826;28;19925;-54
2021/08/05 10:05:55;;;;;;;;;;;;;;;25.51;45.83;99523.44;10353208;28;19983;-55
2021/08/05 10:10:57;;;;;;;;;;;;;;;25.39;44.83;99517.19;10353755;28;20010;-55
2021/08/05 10:15:58;;;;;;;;;;;;;;;25.04;46.88;99512.53;10352041;28;19940;-55
2021/08/05 10:21:01;;;;;;;;;;;;;;;25.21;46.14;99512.69;10346161;28;19933;-54
2021/08/05 10:26:04;;;;;;;;;;;;;;;24.81;45.98;99507.94;10348747;28;19991;-55
2021/08/05 10:31:07;;;;;;;;;;;;;;;24.81;46.48;99492.44;10346965;28;19983;-54
2021/08/05 10:36:10;;;;;;;;;;;;;;;25.75;42.60;99487.97;10353851;28;20039;-55
2021/08/05 10:41:12;;;;;;;;;;;;;;;26.92;42.25;99473.94;10355094;28;20457;-55
2021/08/05 10:46:13;;;;;;;;;;;;;;;27.66;40.31;99475.50;10360850;28;19933;-56
2021/08/05 10:51:15;;;;;;;;;;;;;;;27.77;38.68;99476.44;10350973;28;20008;-55
2021/08/05 10:56:21;;;;;;;;;;;;;;;26.63;42.27;99463.94;10353144;28;20013;-55
2021/08/05 11:01:42;;;;;;;;;;;;;;;27.33;41.54;99463.63;10325575;28;19973;-55
2021/08/05 11:06:43;;;;;;;;;;;;;;;28.46;37.57;99461.28;10350071;28;19925;-55
2021/08/05 11:11:45;;;;;;;;;;;;;;;28.73;36.27;99461.25;10355685;28;19983;-55
2021/08/05 11:16:52;;;;;;;;;;;;;;;28.43;35.66;99451.66;10331965;28;19933;-55
2021/08/05 11:21:54;;;;;;;;;;;;;;;28.99;36.29;99455.94;10351387;28;19940;-55
2021/08/05 11:27:09;;;;;;;;;;;;;;;30.14;32.05;99435.00;10354194;28;19982;-55
2021/08/05 11:32:23;;;;;;;;;;;;;;;29.96;34.47;99428.94;10352914;28;19940;-55
2021/08/05 11:37:25;;;;;;;;;;;;;;;29.63;33.15;99430.22;10348710;28;20085;-59
2021/08/05 11:42:29;;;;;;;;;;;;;;;29.86;33.56;99430.84;10345981;28;19987;-56
2021/08/05 11:47:43;;;;;;;;;;;;;;;29.85;31.58;99410.00;10326813;28;19929;-55
2021/08/05 11:52:49;;;;;;;;;;;;;;;29.97;31.91;99405.09;10330508;28;20115;-54
2021/08/05 11:57:51;;;;;;;;;;;;;;;29.90;31.97;99397.09;10350732;28;19935;-55
2021/08/05 12:02:53;;;;;;;;;;;;;;;30.18;32.96;99392.19;10350849;28;19956;-55
2021/08/05 12:07:57;;;;;;;;;;;;;;;30.12;33.44;99398.78;10333141;28;20012;-55
2021/08/05 12:13:03;;;;;;;;;;;;;;;29.80;33.30;99391.59;10354787;28;19957;-55
2021/08/05 12:18:05;;;;;;;;;;;;;;;29.57;33.96;99395.66;10342235;28;19975;-55
2021/08/05 12:23:11;;;;;;;;;;;;;;;28.75;34.38;99379.69;10338210;28;20061;-55
2021/08/05 12:28:15;;;;;;;;;;;;;;;28.36;35.63;99369.00;10343309;28;20016;-55
2021/08/05 12:33:30;;;;;;;;;;;;;;;29.06;34.57;99369.66;10344754;28;19930;-55
2021/08/05 12:38:32;;;;;;;;;;;;;;;29.37;33.76;99355.31;10344417;28;19968;-55
2021/08/05 12:43:40;;;;;;;;;;;;;;;29.68;33.07;99352.63;10352149;28;20024;-55
2021/08/05 12:48:42;;;;;;;;;;;;;;;28.88;33.00;99337.28;10346321;28;19979;-55
2021/08/05 12:53:44;;;;;;;;;;;;;;;28.67;34.47;99337.16;10353153;28;19980;-55
2021/08/05 12:58:55;;;;;;;;;;;;;;;28.05;35.00;99344.13;10344288;28;19937;-56
2021/08/05 13:03:59;;;;;;;;;;;;;;;27.97;36.22;99330.91;10344012;28;20469;-54
2021/08/05 13:09:05;;;;;;;;;;;;;;;27.74;35.93;99302.00;10328468;28;19932;-56
2021/08/05 13:14:07;;;;;;;;;;;;;;;27.53;36.00;99326.38;10348134;28;19926;-55
2021/08/05 13:19:12;;;;;;;;;;;;;;;26.99;35.49;99302.56;10355001;28;19961;-54
2021/08/05 13:24:16;;;;;;;;;;;;;;;27.17;36.69;99313.16;10348528;28;20093;-56
2021/08/05 13:29:36;;;;;;;;;;;;;;;27.22;35.98;99319.75;10351264;28;20023;-56
2021/08/05 13:34:38;;;;;;;;;;;;;;;27.06;36.27;99314.13;10346587;28;19933;-54
2021/08/05 13:39:50;;;;;;;;;;;;;;;27.30;37.16;99308.38;10353428;28;20016;-57
2021/08/05 13:44:52;;;;;;;;;;;;;;;27.28;37.53;99310.56;10335846;28;19995;-55
2021/08/05 13:49:53;;;;;;;;;;;;;;;27.12;37.05;99313.09;10350024;28;19929;-54
2021/08/05 13:54:54;;;;;;;;;;;;;;;26.68;39.13;99315.00;10350843;28;19926;-54
2021/08/05 13:59:56;;;;;;;;;;;;;;;26.55;39.79;99307.97;10348450;28;20050;-55
2021/08/05 14:04:58;;;;;;;;;;;;;;;26.56;39.79;99301.44;10351035;28;19960;-55
2021/08/05 14:09:59;;;;;;;;;;;;;;;26.48;40.12;99310.06;10353273;28;19932;-54
2021/08/05 14:15:01;;;;;;;;;;;;;;;26.46;40.69;99310.31;10350119;28;20017;-54
2021/08/05 14:20:04;;;;;;;;;;;;;;;26.24;40.31;99318.44;10354315;28;19933;-55
2021/08/05 14:25:05;;;;;;;;;;;;;;;26.14;42.06;99316.38;10337810;28;20023;-54
2021/08/05 14:30:08;;;;;;;;;;;;;;;26.14;43.25;99321.00;10351047;28;19933;-56
2021/08/05 14:35:10;;;;;;;;;;;;;;;25.90;44.16;99312.97;10352888;28;19980;-54
2021/08/05 14:40:12;;;;;;;;;;;;;;;25.55;45.24;99306.66;10343014;28;19956;-55
2021/08/05 14:45:13;;;;;;;;;;;;;;;25.59;45.92;99307.00;10345702;28;19965;-55
2021/08/05 14:50:14;;;;;;;;;;;;;;;26.03;45.47;99307.22;10349577;28;20010;-55
2021/08/05 14:55:16;;;;;;;;;;;;;;;25.81;45.88;99298.94;10337667;28;20024;-57
2021/08/05 15:00:17;;;;;;;;;;;;;;;25.51;46.67;99300.03;10349304;28;19964;-55
2021/08/05 15:05:18;;;;;;;;;;;;;;;25.61;46.55;99309.47;10347643;28;19961;-55
2021/08/05 15:10:20;;;;;;;;;;;;;;;25.53;47.01;99297.91;10334210;28;19972;-56
2021/08/05 15:15:21;;;;;;;;;;;;;;;25.21;47.63;99283.94;10341589;28;20429;-56
2021/08/05 15:20:22;;;;;;;;;;;;;;;25.72;47.15;99290.31;10342015;28;19953;-55
2021/08/05 15:25:26;;;;;;;;;;;;;;;25.62;47.00;99283.88;10343147;28;20314;-56
2021/08/05 15:30:27;;;;;;;;;;;;;;;25.79;46.08;99276.53;10350253;28;20391;-55
2021/08/05 15:35:32;;;;;;;;;;;;;;;25.49;45.52;99271.38;10331063;28;19929;-56
2021/08/05 15:40:34;;;;;;;;;;;;;;;25.54;45.63;99266.06;10353845;28;19972;-55
2021/08/05 15:45:36;;;;;;;;;;;;;;;25.65;44.42;99269.75;10348141;28;19934;-56
2021/08/05 15:50:37;;;;;;;;;;;;;;;25.64;43.16;99268.09;10332123;28;19933;-55
2021/08/05 15:55:39;;;;;;;;;;;;;;;25.59;42.92;99264.22;10332041;28;19979;-56
2021/08/05 16:00:40;;;;;;;;;;;;;;;25.48;43.77;99261.59;10350134;28;19998;-56
2021/08/05 16:05:42;;;;;;;;;;;;;;;25.39;43.96;99259.25;10349259;28;19925;-55
2021/08/05 16:10:47;;;;;;;;;;;;;;;25.39;44.07;99251.06;10347054;28;20067;-56
2021/08/05 16:15:48;;;;;;;;;;;;;;;25.43;44.00;99253.31;10343634;28;19976;-56
2021/08/05 16:20:49;;;;;;;;;;;;;;;25.12;44.51;99241.84;10348032;28;20789;-56
2021/08/05 16:25:51;;;;;;;;;;;;;;;25.07;45.07;99237.09;10349488;28;20008;-56
2021/08/05 16:30:53;;;;;;;;;;;;;;;25.02;48.64;99232.41;10349107;28;19929;-55
2021/08/05 16:35:55;;;;;;;;;;;;;;;24.97;48.81;99229.59;10344847;28;19925;-56
2021/08/05 16:40:56;;;;;;;;;;;;;;;24.97;48.99;99236.94;10342579;28;20032;-56
2021/08/05 16:45:57;;;;;;;;;;;;;;;24.83;49.16;99230.94;10354153;28;20023;-56
2021/08/05 16:50:59;;;;;;;;;;;;;;;24.87;49.12;99223.94;10356998;28;20408;-56
2021/08/05 16:56:04;;;;;;;;;;;;;;;24.90;49.29;99218.00;10354166;28;19933;-55
2021/08/05 17:01:05;;;;;;;;;;;;;;;24.79;49.16;99224.34;10352290;28;19929;-56
2021/08/05 17:06:10;;;;;;;;;;;;;;;24.58;50.21;99221.19;10356462;28;20015;-56
2021/08/05 17:11:12;;;;;;;;;;;;;;;24.44;50.86;99219.78;10354392;28;19953;-56
2021/08/05 17:16:13;;;;;;;;;;;;;;;24.34;51.11;99213.06;10351904;28;20020;-55
2021/08/05 17:21:16;;;;;;;;;;;;;;;24.24;51.68;99220.16;10352255;28;20190;-55
2021/08/05 17:26:19;;;;;;;;;;;;;;;24.15;54.98;99225.97;10351059;28;19972;-58
2021/08/05 17:31:21;;;;;;;;;;;;;;;24.14;53.69;99220.75;10353894;28;20091;-59
2021/08/05 17:36:23;;;;;;;;;;;;;;;24.08;52.35;99216.28;10352416;28;19933;-57
2021/08/05 17:41:24;;;;;;;;;;;;;;;23.96;54.54;99208.97;10351878;28;20001;-57
2021/08/05 17:46:26;;;;;;;;;;;;;;;23.92;55.50;99218.66;10343315;28;19956;-56
2021/08/05 17:51:27;;;;;;;;;;;;;;;23.86;56.87;99219.59;10329878;28;19937;-57
2021/08/05 17:56:28;;;;;;;;;;;;;;;23.76;57.02;99224.75;10344579;28;20217;-57
2021/08/05 18:01:30;;;;;;;;;;;;;;;23.64;57.58;99228.31;10342973;28;19968;-56
2021/08/05 18:06:32;;;;;;;;;;;;;;;23.56;58.30;99231.34;10349496;28;19925;-56
2021/08/05 18:11:33;;;;;;;;;;;;;;;23.50;59.11;99226.84;10340637;28;20053;-56
2021/08/05 18:16:35;;;;;;;;;;;;;;;23.35;58.76;99235.44;10344250;28;20008;-56
2021/08/05 18:21:36;;;;;;;;;;;;;;;23.30;59.28;99222.56;10331095;28;19962;-56
2021/08/05 18:26:38;;;;;;;;;;;;;;;23.18;58.61;99227.13;10341768;28;19965;-57
2021/08/05 18:31:39;;;;;;;;;;;;;;;23.00;59.16;99211.69;10346100;28;20052;-57
2021/08/05 18:36:42;;;;;;;;;;;;;;;22.79;59.71;99218.47;10347697;28;20390;-56
2021/08/05 18:41:43;;;;;;;;;;;;;;;22.63;63.52;99243.50;10346304;28;20016;-56
2021/08/05 18:46:44;;;;;;;;;;;;;;;22.51;68.75;99252.38;10341948;28;20023;-57
2021/08/05 18:51:46;;;;;;;;;;;;;;;22.39;69.42;99243.34;10342871;28;19945;-58
2021/08/05 18:56:47;;;;;;;;;;;;;;;22.23;69.72;99218.47;10343987;28;20071;-57
2021/08/05 19:01:49;;;;;;;;;;;;;;;22.07;69.65;99219.88;10345220;28;20016;-57
2021/08/05 19:06:50;;;;;;;;;;;;;;;21.98;68.28;99236.63;10348529;28;19945;-56
2021/08/05 19:11:54;;;;;;;;;;;;;;;20.97;72.11;99263.56;10333224;28;19925;-56
2021/08/05 19:16:55;;;;;;;;;;;;;;;21.02;74.23;99261.88;10336899;28;20016;-56
2021/08/05 19:21:57;;;;;;;;;;;;;;;21.24;75.72;99247.16;10338556;28;19933;-57
2021/08/05 19:26:59;;;;;;;;;;;;;;;21.34;75.43;99248.34;10332430;28;20378;-57
2021/08/05 19:32:00;;;;;;;;;;;;;;;21.30;73.21;99262.53;10344851;28;20100;-56
2021/08/05 19:37:01;;;;;;;;;;;;;;;21.31;73.83;99264.22;10341538;28;20020;-56
2021/08/05 19:42:03;;;;;;;;;;;;;;;21.32;73.64;99268.59;10329573;28;20099;-56
2021/08/05 19:47:06;;;;;;;;;;;;;;;21.18;72.97;99276.78;10342951;28;19961;-56
2021/08/05 19:52:07;;;;;;;;;;;;;;;21.17;75.77;99264.28;10348757;28;20164;-55
2021/08/05 19:57:25;;;;;;;;;;;;;;;21.16;76.47;99268.03;10344424;28;20081;-55
2021/08/05 20:02:26;;;;;;;;;;;;;;;21.02;71.71;99266.47;10343489;28;20434;-55
2021/08/05 20:07:28;;;;;;;;;;;;;;;20.94;72.73;99263.97;10341834;28;19932;-56
2021/08/05 20:12:29;;;;;;;;;;;;;;;20.97;75.32;99263.56;10341186;28;20048;-56
2021/08/05 20:17:31;;;;;;;;;;;;;;;20.87;75.15;99257.78;10332872;28;20448;-56
2021/08/05 20:22:32;;;;;;;;;;;;;;;20.77;76.61;99242.84;10358399;28;20170;-54
2021/08/05 20:27:34;;;;;;;;;;;;;;;20.66;76.26;99244.34;10357938;28;20020;-59
2021/08/05 20:32:35;;;;;;;;;;;;;;;20.60;77.17;99241.66;10353315;28;20020;-55
2021/08/05 20:37:36;;;;;;;;;;;;;;;20.52;76.46;99249.97;10351924;28;19926;-54
2021/08/05 20:42:38;;;;;;;;;;;;;;;20.48;78.18;99244.19;10361522;28;19960;-55
2021/08/05 20:47:39;;;;;;;;;;;;;;;20.45;78.12;99250.00;10354470;28;19973;-55
2021/08/05 20:52:41;;;;;;;;;;;;;;;20.41;77.98;99256.88;10359776;28;19932;-55
2021/08/05 20:57:42;;;;;;;;;;;;;;;20.40;78.68;99253.34;10380189;28;19988;-55
2021/08/05 21:02:44;;;;;;;;;;;;;;;20.39;79.17;99257.09;10369584;28;19965;-57
2021/08/05 21:07:45;;;;;;;;;;;;;;;20.31;78.83;99265.41;10381497;28;20665;-55
2021/08/05 21:12:47;;;;;;;;;;;;;;;20.23;79.27;99268.34;10380678;28;19932;-55
2021/08/05 21:17:49;;;;;;;;;;;;;;;20.15;79.03;99258.59;10377343;28;19930;-55
2021/08/05 21:22:51;;;;;;;;;;;;;;;20.04;79.41;99265.47;10373822;28;19929;-56
2021/08/05 21:27:52;;;;;;;;;;;;;;;19.99;79.30;99259.84;10375825;28;19991;-56
2021/08/05 21:32:53;;;;;;;;;;;;;;;19.93;79.52;99252.59;10364860;28;20071;-55
2021/08/05 21:37:55;;;;;;;;;;;;;;;19.92;79.64;99261.72;10370659;28;19933;-56
2021/08/05 21:42:58;;;;;;;;;;;;;;;19.90;80.15;99264.63;10374020;28;20075;-55
2021/08/05 21:48:01;;;;;;;;;;;;;;;19.88;79.64;99266.72;10370037;28;19961;-56
2021/08/05 21:53:02;;;;;;;;;;;;;;;19.86;80.29;99273.34;10371079;28;20392;-56
2021/08/05 21:58:03;;;;;;;;;;;;;;;19.87;80.59;99264.22;10372107;28;19933;-56
2021/08/05 22:03:05;;;;;;;;;;;;;;;19.87;80.25;99258.81;10377067;28;19964;-57
2021/08/05 22:08:06;;;;;;;;;;;;;;;19.81;80.38;99259.66;10374158;28;19932;-55
2021/08/05 22:13:08;;;;;;;;;;;;;;;19.76;80.30;99257.56;10370973;28;20401;-55
2021/08/05 22:18:09;;;;;;;;;;;;;;;19.78;80.25;99250.09;10372777;28;19925;-55
2021/08/05 22:23:12;;;;;;;;;;;;;;;19.78;80.34;99250.91;10376190;28;19926;-56
2021/08/05 22:28:13;;;;;;;;;;;;;;;19.73;79.85;99247.19;10376705;28;19957;-56
2021/08/05 22:33:15;;;;;;;;;;;;;;;19.70;79.45;99243.00;10372074;28;20300;-57
2021/08/05 22:38:16;;;;;;;;;;;;;;;19.65;79.20;99232.03;10370848;28;19987;-56
2021/08/05 22:43:22;;;;;;;;;;;;;;;19.59;79.85;99224.72;10365240;28;19929;-56
2021/08/05 22:48:24;;;;;;;;;;;;;;;19.56;80.17;99225.16;10373127;28;20410;-55
2021/08/05 22:53:25;;;;;;;;;;;;;;;19.46;78.77;99230.16;10365777;28;19933;-55
2021/08/05 22:58:27;;;;;;;;;;;;;;;19.40;79.56;99221.81;10366571;28;19976;-55
2021/08/05 23:03:28;;;;;;;;;;;;;;;19.46;79.77;99214.78;10374001;28;20032;-55
2021/08/05 23:08:30;;;;;;;;;;;;;;;19.48;79.02;99222.66;10375750;28;19947;-59
2021/08/05 23:13:31;;;;;;;;;;;;;;;19.45;78.36;99215.81;10373853;28;19925;-55
2021/08/05 23:18:32;;;;;;;;;;;;;;;19.40;78.50;99204.81;10373342;28;19998;-55
2021/08/05 23:23:33;;;;;;;;;;;;;;;19.35;79.10;99205.44;10369001;28;19979;-55
2021/08/05 23:28:35;;;;;;;;;;;;;;;19.24;79.04;99201.47;10379143;28;20409;-55
2021/08/05 23:33:37;;;;;;;;;;;;;;;19.26;79.00;99195.88;10371192;28;19925;-56
2021/08/05 23:38:38;;;;;;;;;;;;;;;19.22;79.40;99186.53;10368253;28;19975;-55
2021/08/05 23:43:40;;;;;;;;;;;;;;;19.21;79.81;99190.25;10366385;28;19972;-55
2021/08/05 23:48:41;;;;;;;;;;;;;;;19.16;80.00;99181.97;10372759;28;19929;-56
2021/08/05 23:53:43;;;;;;;;;;;;;;;19.19;80.28;99193.16;10366800;28;19925;-56
2021/08/05 23:58:44;;;;;;;;;;;;;;;19.17;79.62;99194.38;10365503;28;19925;-59
